createdAt,value
2018-12-25T00:01:37.705Z,19.90
2018-12-25T00:04:06.014Z,19.60
2018-12-25T00:06:34.329Z,19.90
2018-12-25T00:09:02.605Z,21.10
2018-12-25T00:11:30.908Z,19.20
2018-12-25T00:13:59.187Z,17.77
2018-12-25T00:16:27.486Z,19.60
2018-12-25T00:18:55.766Z,19.90
2018-12-25T00:21:24.071Z,18.97
2018-12-25T00:23:52.354Z,19.87
2018-12-25T00:26:20.659Z,19.63
2018-12-25T00:28:48.937Z,19.87
2018-12-25T00:31:17.232Z,19.47
2018-12-25T00:33:45.531Z,18.07
2018-12-25T00:36:13.809Z,19.60
2018-12-25T00:38:42.107Z,18.83
2018-12-25T00:41:10.385Z,22.07
2018-12-25T00:43:38.683Z,20.30
2018-12-25T00:46:06.972Z,18.43
2018-12-25T00:48:35.272Z,19.47
2018-12-25T00:51:03.554Z,19.20
2018-12-25T00:53:31.917Z,18.47
2018-12-25T00:56:00.207Z,18.83
2018-12-25T00:58:28.512Z,19.07
2018-12-25T01:00:56.793Z,18.70
2018-12-25T01:03:25.094Z,19.87
2018-12-25T01:05:53.371Z,19.30
2018-12-25T01:08:21.957Z,18.70
2018-12-25T01:10:50.244Z,19.67
2018-12-25T01:13:18.541Z,21.40
2018-12-25T01:15:46.816Z,19.50
2018-12-25T01:18:15.489Z,20.83
2018-12-25T01:20:43.790Z,19.10
2018-12-25T01:23:12.332Z,20.77
2018-12-25T01:25:40.631Z,20.17
2018-12-25T01:28:08.914Z,20.33
2018-12-25T01:30:37.211Z,20.10
2018-12-25T01:33:05.495Z,18.67
2018-12-25T01:35:33.789Z,18.77
2018-12-25T01:38:02.104Z,20.23
2018-12-25T01:40:30.405Z,19.83
2018-12-25T01:42:58.685Z,20.07
2018-12-25T01:45:27.001Z,19.27
2018-12-25T01:47:55.294Z,19.53
2018-12-25T01:50:23.873Z,19.57
2018-12-25T01:52:52.172Z,19.93
2018-12-25T01:55:20.454Z,18.97
2018-12-25T01:57:48.750Z,19.73
2018-12-25T02:00:17.052Z,18.83
2018-12-25T02:02:45.351Z,19.00
2018-12-25T02:05:13.634Z,19.00
2018-12-25T02:07:42.224Z,19.20
2018-12-25T02:10:10.505Z,19.27
2018-12-25T02:12:38.805Z,19.87
2018-12-25T02:15:07.091Z,18.43
2018-12-25T02:17:35.393Z,18.23
2018-12-25T02:20:04.152Z,20.13
2018-12-25T02:22:32.704Z,19.33
2018-12-25T02:25:00.990Z,18.97
2018-12-25T02:27:29.295Z,18.93
2018-12-25T02:29:57.576Z,18.40
2018-12-25T02:32:25.860Z,20.07
2018-12-25T02:34:54.152Z,19.50
2018-12-25T02:37:22.439Z,19.23
2018-12-25T02:39:50.733Z,19.60
2018-12-25T02:42:19.017Z,18.80
2018-12-25T02:44:47.323Z,19.87
2018-12-25T02:47:15.603Z,19.30
2018-12-25T02:49:50.240Z,18.50
2018-12-25T02:52:13.911Z,18.90
2018-12-25T02:54:42.212Z,18.90
2018-12-25T02:57:10.492Z,20.13
2018-12-25T02:59:39.110Z,19.93
2018-12-25T03:02:07.417Z,19.93
2018-12-25T03:04:35.699Z,17.97
2018-12-25T03:07:03.997Z,19.90
2018-12-25T03:09:32.628Z,19.60
2018-12-25T03:12:00.926Z,18.43
2018-12-25T03:14:29.480Z,20.27
2018-12-25T03:16:57.767Z,18.97
2018-12-25T03:19:26.065Z,19.70
2018-12-25T03:21:54.354Z,17.90
2018-12-25T03:24:22.674Z,19.10
2018-12-25T03:26:50.978Z,18.77
2018-12-25T03:29:19.550Z,18.60
2018-12-25T03:31:47.925Z,19.37
2018-12-25T03:34:16.243Z,18.00
2018-12-25T03:36:44.531Z,18.90
2018-12-25T03:39:13.163Z,20.63
2018-12-25T03:41:41.771Z,18.93
2018-12-25T03:44:10.080Z,18.47
2018-12-25T03:46:38.355Z,18.93
2018-12-25T03:49:06.659Z,18.30
2018-12-25T03:51:34.932Z,19.30
2018-12-25T03:54:03.248Z,18.73
2018-12-25T03:56:31.537Z,18.93
2018-12-25T03:58:59.809Z,18.10
2018-12-25T04:01:28.386Z,18.20
2018-12-25T04:03:56.676Z,18.77
2018-12-25T04:06:24.995Z,17.87
2018-12-25T04:08:53.623Z,18.70
2018-12-25T04:11:21.921Z,19.80
2018-12-25T04:13:50.213Z,18.60
2018-12-25T04:16:18.848Z,18.23
2018-12-25T04:18:47.140Z,20.57
2018-12-25T04:21:15.439Z,19.40
2018-12-25T04:23:43.725Z,19.23
2018-12-25T04:26:12.086Z,18.10
2018-12-25T04:28:40.412Z,18.07
2018-12-25T04:31:08.687Z,17.97
2018-12-25T04:33:36.994Z,16.80
2018-12-25T04:36:05.272Z,18.07
2018-12-25T04:38:33.574Z,18.33
2018-12-25T04:41:02.124Z,19.07
2018-12-25T04:43:30.708Z,18.17
2018-12-25T04:45:59.298Z,17.67
2018-12-25T04:48:27.589Z,18.03
2018-12-25T04:50:55.869Z,18.10
2018-12-25T04:53:24.165Z,19.47
2018-12-25T04:55:52.521Z,19.03
2018-12-25T04:58:20.824Z,18.47
2018-12-25T05:00:49.108Z,18.83
2018-12-25T05:03:17.412Z,18.07
2018-12-25T05:05:45.777Z,18.77
2018-12-25T05:08:14.073Z,18.10
2018-12-25T05:10:42.671Z,17.43
2018-12-25T05:13:10.965Z,19.33
2018-12-25T05:15:39.549Z,17.47
2018-12-25T05:18:07.847Z,18.43
2018-12-25T05:20:38.017Z,18.23
2018-12-25T05:23:06.137Z,17.73
2018-12-25T05:25:34.429Z,17.73
2018-12-25T05:28:02.718Z,16.77
2018-12-25T05:30:30.993Z,17.23
2018-12-25T05:32:59.299Z,18.83
2018-12-25T05:35:27.893Z,17.77
2018-12-25T05:37:56.178Z,17.07
2018-12-25T05:40:24.472Z,16.90
2018-12-25T05:42:52.785Z,16.60
2018-12-25T05:45:21.061Z,17.90
2018-12-25T05:47:49.345Z,17.23
2018-12-25T05:50:17.650Z,17.30
2018-12-25T05:52:45.936Z,17.70
2018-12-25T05:55:14.234Z,17.20
2018-12-25T05:57:42.507Z,18.33
2018-12-25T06:00:11.064Z,17.10
2018-12-25T06:02:39.344Z,17.27
2018-12-25T06:05:07.717Z,16.67
2018-12-25T06:07:35.994Z,18.47
2018-12-25T06:10:05.299Z,16.93
2018-12-25T06:12:33.590Z,19.37
2018-12-25T06:15:01.891Z,18.47
2018-12-25T06:17:30.173Z,18.87
2018-12-25T06:19:58.463Z,17.47
2018-12-25T06:22:27.004Z,17.00
2018-12-25T06:24:55.293Z,16.83
2018-12-25T06:27:23.594Z,17.27
2018-12-25T06:29:51.878Z,16.03
2018-12-25T06:32:20.168Z,16.60
2018-12-25T06:34:48.796Z,17.07
2018-12-25T06:37:17.367Z,17.00
2018-12-25T06:39:45.730Z,16.80
2018-12-25T06:42:14.025Z,16.50
2018-12-25T06:44:42.306Z,18.90
2018-12-25T06:47:10.623Z,17.17
2018-12-25T06:49:38.911Z,16.53
2018-12-25T06:52:07.191Z,17.30
2018-12-25T06:54:35.517Z,18.10
2018-12-25T06:57:03.798Z,17.20
2018-12-25T06:59:32.097Z,17.10
2018-12-25T07:02:00.383Z,17.83
2018-12-25T07:04:29.015Z,16.57
2018-12-25T07:06:57.297Z,16.03
2018-12-25T07:09:25.695Z,17.17
2018-12-25T07:11:53.966Z,16.90
2018-12-25T07:14:22.553Z,15.90
2018-12-25T07:16:50.826Z,16.50
2018-12-25T07:19:19.128Z,15.33
2018-12-25T07:21:47.668Z,16.60
2018-12-25T07:24:15.955Z,15.70
2018-12-25T07:26:44.529Z,15.60
2018-12-25T07:29:13.131Z,16.10
2018-12-25T07:31:41.424Z,15.63
2018-12-25T07:34:09.712Z,15.40
2018-12-25T07:36:38.005Z,15.50
2018-12-25T07:39:06.797Z,15.53
2018-12-25T07:41:35.098Z,15.33
2018-12-25T07:44:03.375Z,15.83
2018-12-25T07:46:31.673Z,15.73
2018-12-25T07:49:00.258Z,15.77
2018-12-25T07:51:28.559Z,15.47
2018-12-25T07:53:56.835Z,17.63
2018-12-25T07:56:26.887Z,17.27
2018-12-25T07:58:55.500Z,16.83
2018-12-25T08:01:23.812Z,16.70
2018-12-25T08:03:52.090Z,15.50
2018-12-25T08:06:20.377Z,15.80
2018-12-25T08:08:48.659Z,16.10
2018-12-25T08:11:16.936Z,14.77
2018-12-25T08:13:45.273Z,15.60
2018-12-25T08:16:13.558Z,15.97
2018-12-25T08:18:41.854Z,15.43
2018-12-25T08:21:10.139Z,15.87
2018-12-25T08:23:38.434Z,16.60
2018-12-25T08:26:06.706Z,16.43
2018-12-25T08:28:35.009Z,16.83
2018-12-25T08:31:03.327Z,16.40
2018-12-25T08:33:31.584Z,17.47
2018-12-25T08:36:00.160Z,16.20
2018-12-25T08:38:28.464Z,15.20
2018-12-25T08:40:56.745Z,16.17
2018-12-25T08:43:25.043Z,16.63
2018-12-25T08:45:53.683Z,15.87
2018-12-25T08:48:21.980Z,16.20
2018-12-25T08:50:50.263Z,15.33
2018-12-25T08:53:18.539Z,16.63
2018-12-25T08:55:47.402Z,16.53
2018-12-25T08:58:15.811Z,18.03
2018-12-25T09:00:44.362Z,15.63
2018-12-25T09:03:12.644Z,15.57
2018-12-25T09:05:41.321Z,16.13
2018-12-25T09:08:09.608Z,15.53
2018-12-25T09:10:37.900Z,16.17
2018-12-25T09:13:06.183Z,14.97
2018-12-25T09:15:34.475Z,15.80
2018-12-25T09:18:02.755Z,17.00
2018-12-25T09:20:31.052Z,22.93
2018-12-25T09:22:59.333Z,14.73
2018-12-25T09:25:27.631Z,18.10
2018-12-25T09:27:55.924Z,15.87
2018-12-25T09:30:24.223Z,15.20
2018-12-25T09:32:53.446Z,16.00
2018-12-25T09:35:21.812Z,14.93
2018-12-25T09:37:50.458Z,15.80
2018-12-25T09:40:18.832Z,14.30
2018-12-25T09:42:47.206Z,15.00
2018-12-25T09:45:15.828Z,16.13
2018-12-25T09:47:44.377Z,15.57
2018-12-25T09:50:12.978Z,15.60
2018-12-25T09:52:41.279Z,15.83
2018-12-25T09:55:09.562Z,15.27
2018-12-25T09:57:37.863Z,15.20
2018-12-25T10:00:08.965Z,13.33
2018-12-25T10:02:37.263Z,13.27
2018-12-25T10:05:05.550Z,14.57
2018-12-25T10:07:33.846Z,13.43
2018-12-25T10:10:02.133Z,12.67
2018-12-25T10:12:30.428Z,13.03
2018-12-25T10:14:58.718Z,12.97
2018-12-25T10:17:27.016Z,13.87
2018-12-25T10:19:55.292Z,12.90
2018-12-25T10:22:23.861Z,12.53
2018-12-25T10:24:52.139Z,14.73
2018-12-25T10:27:20.429Z,13.30
2018-12-25T10:29:48.728Z,12.00
2018-12-25T10:32:17.109Z,13.43
2018-12-25T10:34:45.741Z,11.43
2018-12-25T10:37:14.313Z,11.27
2018-12-25T10:39:42.891Z,10.07
2018-12-25T10:42:11.172Z,10.77
2018-12-25T10:44:39.479Z,11.50
2018-12-25T10:47:07.763Z,9.80
2018-12-25T10:49:36.059Z,9.37
2018-12-25T10:52:11.522Z,11.10
2018-12-25T10:54:34.703Z,9.67
2018-12-25T10:57:02.994Z,10.50
2018-12-25T10:59:31.375Z,10.97
2018-12-25T11:01:59.730Z,11.50
2018-12-25T11:04:28.178Z,9.70
2018-12-25T11:06:56.482Z,10.13
2018-12-25T11:09:24.783Z,10.63
2018-12-25T11:11:53.085Z,9.87
2018-12-25T11:14:21.367Z,10.50
2018-12-25T11:16:49.667Z,11.33
2018-12-25T11:19:17.942Z,9.97
2018-12-25T11:21:46.241Z,10.27
2018-12-25T11:24:14.887Z,9.93
2018-12-25T11:26:43.184Z,10.10
2018-12-25T11:29:11.477Z,11.03
2018-12-25T11:31:39.766Z,11.37
2018-12-25T11:34:08.369Z,11.17
2018-12-25T11:36:36.937Z,10.97
2018-12-25T11:39:06.164Z,11.20
2018-12-25T11:41:34.461Z,10.27
2018-12-25T11:44:02.740Z,11.27
2018-12-25T11:46:31.046Z,11.17
2018-12-25T11:48:59.656Z,11.47
2018-12-25T11:51:27.971Z,11.20
2018-12-25T11:53:56.264Z,11.60
2018-12-25T11:56:24.572Z,11.10
2018-12-25T11:58:53.780Z,11.30
2018-12-25T12:01:21.915Z,12.23
2018-12-25T12:03:50.207Z,11.90
2018-12-25T12:06:18.498Z,11.70
2018-12-25T12:08:46.782Z,11.70
2018-12-25T12:11:15.064Z,11.27
2018-12-25T12:13:43.645Z,12.03
2018-12-25T12:16:11.933Z,10.90
2018-12-25T12:18:40.222Z,9.40
2018-12-25T12:21:08.514Z,10.47
2018-12-25T12:23:36.824Z,10.47
2018-12-25T12:26:05.108Z,10.90
2018-12-25T12:28:33.412Z,10.63
2018-12-25T12:31:01.712Z,10.87
2018-12-25T12:33:30.004Z,12.97
2018-12-25T12:35:58.286Z,10.03
2018-12-25T12:38:26.944Z,10.17
2018-12-25T12:40:55.232Z,10.57
2018-12-25T12:43:23.611Z,11.30
2018-12-25T12:45:51.903Z,10.93
2018-12-25T12:48:20.185Z,10.83
2018-12-25T12:50:48.820Z,12.27
2018-12-25T12:53:17.107Z,12.03
2018-12-25T12:55:45.405Z,11.07
2018-12-25T12:58:14.090Z,11.90
2018-12-25T13:00:42.746Z,9.70
2018-12-25T13:03:11.052Z,12.13
2018-12-25T13:05:39.360Z,11.53
2018-12-25T13:08:08.003Z,10.83
2018-12-25T13:10:36.299Z,11.50
2018-12-25T13:13:04.573Z,9.80
2018-12-25T13:15:33.223Z,10.30
2018-12-25T13:18:01.521Z,10.33
2018-12-25T13:20:30.083Z,10.60
2018-12-25T13:22:58.368Z,18.60
2018-12-25T13:25:26.709Z,11.30
2018-12-25T13:27:54.993Z,10.20
2018-12-25T13:30:23.289Z,10.80
2018-12-25T13:32:51.581Z,11.57
2018-12-25T13:35:19.880Z,9.83
2018-12-25T13:37:48.164Z,10.13
2018-12-25T13:40:16.465Z,10.83
2018-12-25T13:42:44.750Z,11.10
2018-12-25T13:45:13.060Z,10.60
2018-12-25T13:47:41.345Z,9.93
2018-12-25T13:50:12.308Z,11.47
2018-12-25T13:52:40.608Z,11.33
2018-12-25T13:55:08.894Z,11.33
2018-12-25T13:57:37.195Z,16.73
2018-12-25T14:00:06.012Z,10.83
2018-12-25T14:02:34.307Z,11.47
2018-12-25T14:05:03.464Z,10.50
2018-12-25T14:07:31.757Z,11.20
2018-12-25T14:10:00.341Z,10.20
2018-12-25T14:12:28.900Z,17.77
2018-12-25T14:14:57.247Z,10.93
2018-12-25T14:17:25.540Z,9.83
2018-12-25T14:19:53.839Z,10.23
2018-12-25T14:22:22.415Z,9.53
2018-12-25T14:24:50.707Z,10.13
2018-12-25T14:27:19.002Z,11.97
2018-12-25T14:29:47.277Z,10.10
2018-12-25T14:32:15.579Z,10.00
2018-12-25T14:34:43.862Z,9.10
2018-12-25T14:37:12.155Z,9.67
2018-12-25T14:39:40.454Z,12.13
2018-12-25T14:42:08.733Z,8.73
2018-12-25T14:44:37.026Z,10.27
2018-12-25T14:47:05.320Z,9.03
2018-12-25T14:49:33.607Z,9.63
2018-12-25T14:52:02.144Z,9.53
2018-12-25T14:54:30.633Z,27.00
2018-12-25T14:56:59.159Z,9.33
2018-12-25T14:59:27.453Z,9.57
2018-12-25T15:01:55.747Z,11.17
2018-12-25T15:04:24.046Z,9.53
2018-12-25T15:06:52.632Z,10.67
2018-12-25T15:09:20.930Z,10.50
2018-12-25T15:11:49.215Z,11.03
2018-12-25T15:14:17.490Z,11.40
2018-12-25T15:16:45.789Z,12.00
2018-12-25T15:19:14.433Z,11.23
2018-12-25T15:21:42.751Z,11.83
2018-12-25T15:24:11.037Z,11.40
2018-12-25T15:26:39.336Z,11.97
2018-12-25T15:29:07.614Z,10.43
2018-12-25T15:31:35.913Z,11.77
2018-12-25T15:34:04.185Z,11.93
2018-12-25T15:36:32.489Z,12.00
2018-12-25T15:39:00.774Z,11.60
2018-12-25T15:41:29.168Z,11.40
2018-12-25T15:43:57.431Z,12.50
2018-12-25T15:46:25.730Z,11.70
2018-12-25T15:48:54.011Z,10.70
2018-12-25T15:51:22.313Z,11.60
2018-12-25T15:53:50.593Z,11.57
2018-12-25T15:56:19.174Z,11.33
2018-12-25T15:58:47.754Z,12.20
2018-12-25T16:01:16.058Z,11.53
2018-12-25T16:03:44.341Z,12.20
2018-12-25T16:06:12.634Z,11.43
2018-12-25T16:08:41.171Z,13.60
2018-12-25T16:11:09.471Z,11.07
2018-12-25T16:13:37.761Z,10.97
2018-12-25T16:16:06.057Z,10.53
2018-12-25T16:18:34.343Z,10.97
2018-12-25T16:21:02.643Z,11.43
2018-12-25T16:23:30.942Z,12.17
2018-12-25T16:25:59.223Z,12.80
2018-12-25T16:28:27.506Z,11.47
2018-12-25T16:30:56.077Z,11.10
2018-12-25T16:33:24.367Z,12.80
2018-12-25T16:35:52.667Z,12.83
2018-12-25T16:38:21.225Z,12.20
2018-12-25T16:40:49.523Z,12.93
2018-12-25T16:43:17.807Z,13.30
2018-12-25T16:45:46.471Z,12.87
2018-12-25T16:48:14.759Z,13.23
2018-12-25T16:50:43.040Z,13.47
2018-12-25T16:53:11.686Z,13.73
2018-12-25T16:55:40.269Z,13.47
2018-12-25T16:58:08.855Z,12.90
2018-12-25T17:00:37.143Z,13.00
2018-12-25T17:03:05.442Z,13.37
2018-12-25T17:05:33.763Z,13.40
2018-12-25T17:08:02.066Z,13.73
2018-12-25T17:10:30.354Z,14.33
2018-12-25T17:12:58.649Z,13.10
2018-12-25T17:15:27.202Z,12.93
2018-12-25T17:17:55.507Z,17.80
2018-12-25T17:20:23.789Z,13.30
2018-12-25T17:22:52.091Z,12.70
2018-12-25T17:25:20.373Z,16.03
2018-12-25T17:27:48.674Z,12.53
2018-12-25T17:30:16.966Z,13.53
2018-12-25T17:32:45.541Z,13.33
2018-12-25T17:35:13.832Z,11.70
2018-12-25T17:37:42.122Z,13.33
2018-12-25T17:40:10.784Z,13.37
2018-12-25T17:42:39.102Z,12.83
2018-12-25T17:45:07.464Z,13.27
2018-12-25T17:47:35.767Z,12.03
2018-12-25T17:50:05.197Z,12.33
2018-12-25T17:52:33.495Z,12.90
2018-12-25T17:55:01.788Z,13.17
2018-12-25T17:57:30.086Z,14.97
2018-12-25T17:59:58.447Z,12.73
2018-12-25T18:02:26.746Z,12.50
2018-12-25T18:04:55.027Z,14.23
2018-12-25T18:07:23.317Z,13.97
2018-12-25T18:09:51.670Z,12.73
2018-12-25T18:12:20.051Z,14.53
2018-12-25T18:14:48.359Z,13.50
2018-12-25T18:17:18.941Z,14.60
2018-12-25T18:19:46.906Z,14.40
2018-12-25T18:22:15.188Z,15.30
2018-12-25T18:24:43.557Z,15.60
2018-12-25T18:27:11.842Z,15.87
2018-12-25T18:29:40.143Z,16.63
2018-12-25T18:32:08.784Z,16.23
2018-12-25T18:34:37.089Z,16.80
2018-12-25T18:37:05.385Z,15.40
2018-12-25T18:39:33.675Z,14.73
2018-12-25T18:42:01.957Z,16.63
2018-12-25T18:44:30.247Z,16.67
2018-12-25T18:46:58.526Z,15.20
2018-12-25T18:49:27.072Z,14.60
2018-12-25T18:51:54.480Z,14.47
2018-12-25T18:54:27.828Z,16.07
2018-12-25T18:56:52.785Z,15.73
2018-12-25T18:59:21.060Z,15.10
2018-12-25T19:01:49.641Z,15.30
2018-12-25T19:04:17.916Z,16.23
2018-12-25T19:06:46.295Z,16.73
2018-12-25T19:09:14.584Z,15.80
2018-12-25T19:11:42.882Z,17.47
2018-12-25T19:14:11.433Z,17.07
2018-12-25T19:16:39.740Z,16.30
2018-12-25T19:19:08.013Z,16.10
2018-12-25T19:21:36.315Z,16.57
2018-12-25T19:24:04.951Z,16.90
2018-12-25T19:26:33.244Z,17.80
2018-12-25T19:29:01.538Z,18.40
2018-12-25T19:31:30.079Z,17.63
2018-12-25T19:33:59.000Z,18.87
2018-12-25T19:36:27.301Z,19.63
2018-12-25T19:38:55.944Z,17.73
2018-12-25T19:41:24.519Z,19.83
2018-12-25T19:43:52.805Z,19.13
2018-12-25T19:46:21.386Z,18.30
2018-12-25T19:48:49.675Z,17.63
2018-12-25T19:51:17.954Z,20.23
2018-12-25T19:53:46.518Z,19.83
2018-12-25T19:56:15.970Z,20.97
2018-12-25T19:58:44.341Z,20.97
2018-12-25T20:01:12.635Z,19.57
2018-12-25T20:03:42.870Z,20.53
2018-12-25T20:06:25.628Z,18.40
2018-12-25T20:09:12.284Z,21.87
2018-12-25T20:12:17.210Z,20.57
2018-12-25T20:14:51.344Z,19.23
2018-12-25T20:17:25.589Z,19.33
2018-12-25T20:20:00.257Z,20.13
2018-12-25T20:22:48.442Z,19.47
2018-12-25T20:25:39.504Z,19.30
2018-12-25T20:28:23.012Z,20.93
2018-12-25T20:31:18.619Z,20.10
2018-12-25T20:34:01.976Z,20.83
2018-12-25T20:36:39.167Z,20.97
2018-12-25T20:39:27.073Z,21.37
2018-12-25T20:42:33.643Z,21.50
2018-12-25T20:45:32.633Z,22.10
2018-12-25T20:48:22.225Z,19.57
2018-12-25T20:51:05.193Z,20.10
2018-12-25T20:53:56.255Z,21.23
2018-12-25T20:56:35.950Z,20.97
2018-12-25T20:59:23.013Z,20.87
2018-12-25T21:02:09.082Z,20.23
2018-12-25T21:05:04.729Z,20.37
2018-12-25T21:07:45.021Z,21.47
2018-12-25T21:10:51.549Z,20.70
2018-12-25T21:13:34.792Z,20.27
2018-12-25T21:16:35.211Z,20.43
2018-12-25T21:19:15.704Z,19.93
2018-12-25T21:21:49.794Z,18.67
2018-12-25T21:24:54.508Z,20.10
2018-12-25T21:27:31.600Z,19.27
2018-12-25T21:30:04.440Z,20.07
2018-12-25T21:32:33.857Z,20.33
2018-12-25T21:35:08.512Z,20.63
2018-12-25T21:37:36.810Z,19.50
2018-12-25T21:40:06.668Z,21.33
2018-12-25T21:42:34.986Z,19.00
2018-12-25T21:45:04.383Z,20.87
2018-12-25T21:47:32.687Z,20.90
2018-12-25T21:50:01.244Z,21.27
2018-12-25T21:52:29.939Z,20.33
2018-12-25T21:54:58.222Z,18.60
2018-12-25T21:57:26.696Z,19.73
2018-12-25T21:59:55.707Z,19.00
2018-12-25T22:02:24.379Z,21.13
2018-12-25T22:04:52.737Z,20.83
2018-12-25T22:07:21.021Z,18.70
2018-12-25T22:09:49.609Z,20.30
2018-12-25T22:12:17.894Z,20.10
2018-12-25T22:14:46.590Z,19.87
2018-12-25T22:17:14.873Z,20.10
2018-12-25T22:19:43.453Z,20.00
2018-12-25T22:22:12.027Z,19.70
2018-12-25T22:24:40.330Z,18.23
2018-12-25T22:27:08.887Z,18.07
2018-12-25T22:29:37.184Z,20.17
2018-12-25T22:32:05.539Z,19.30
2018-12-25T22:34:33.860Z,17.67
2018-12-25T22:37:02.533Z,17.50
2018-12-25T22:39:30.788Z,18.10
2018-12-25T22:41:59.088Z,17.90
2018-12-25T22:44:27.376Z,17.90
2018-12-25T22:46:55.668Z,16.53
2018-12-25T22:49:23.953Z,17.57
2018-12-25T22:51:52.267Z,16.13
2018-12-25T22:54:20.531Z,17.27
2018-12-25T22:56:48.837Z,16.37
2018-12-25T22:59:17.113Z,16.87
2018-12-25T23:01:45.403Z,16.40
2018-12-25T23:04:13.684Z,18.30
2018-12-25T23:06:41.986Z,16.20
2018-12-25T23:09:10.721Z,19.33
2018-12-25T23:11:39.151Z,16.97
2018-12-25T23:14:07.464Z,17.50
2018-12-25T23:16:35.761Z,17.80
2018-12-25T23:19:04.040Z,16.60
2018-12-25T23:21:32.316Z,18.73
2018-12-25T23:24:00.865Z,17.53
2018-12-25T23:26:29.453Z,18.20
2018-12-25T23:28:57.883Z,16.60
2018-12-25T23:31:26.112Z,17.30
2018-12-25T23:33:54.414Z,17.60
2018-12-25T23:36:22.698Z,18.17
2018-12-25T23:38:51.346Z,18.40
2018-12-25T23:41:19.933Z,18.53
2018-12-25T23:43:48.236Z,16.60
2018-12-25T23:46:16.796Z,17.70
2018-12-25T23:48:45.098Z,17.23
2018-12-25T23:51:13.460Z,19.37
2018-12-25T23:53:41.757Z,18.27
2018-12-25T23:56:10.329Z,18.93
2018-12-25T23:58:38.631Z,19.50
